Time;durP1;ratioP1;P1;durP2;ratioP2;P2;SDS_P1;SDS_P2;PMS_P1;PMS_P2;Temp;Humidity;BMP_temperature;BMP_pressure;BME280_temperature;BME280_humidity;BME280_pressure;Samples;Min_cycle;Max_cycle;Signal;HPM_P1;HPM_P2
2022/08/28 00:01:53;;;;;;;9.93;4.07;;;12.70;99.90;;;;;;5001584;28;20446;-85
2022/08/28 00:04:19;;;;;;;11.65;4.32;;;12.80;99.90;;;;;;5003686;28;20037;-84
2022/08/28 00:06:45;;;;;;;9.65;4.45;;;12.80;99.90;;;;;;5022712;28;20619;-85
2022/08/28 00:09:11;;;;;;;7.07;3.85;;;12.70;99.90;;;;;;5006677;28;20046;-85
2022/08/28 00:11:37;;;;;;;12.77;4.15;;;12.70;99.90;;;;;;5023542;28;20061;-85
2022/08/28 00:14:05;;;;;;;11.95;4.25;;;12.70;99.90;;;;;;5032424;28;20535;-85
2022/08/28 00:16:33;;;;;;;11.60;4.53;;;12.70;99.90;;;;;;4995588;28;20102;-85
2022/08/28 00:19:00;;;;;;;11.02;4.28;;;12.70;99.90;;;;;;5021028;28;20116;-85
2022/08/28 00:21:27;;;;;;;7.90;4.50;;;12.60;99.90;;;;;;5033313;28;20109;-85
2022/08/28 00:23:53;;;;;;;13.15;4.20;;;12.60;99.90;;;;;;5019726;28;20664;-85
2022/08/28 00:29:04;;;;;;;8.98;4.45;;;12.50;99.90;;;;;;5027991;28;20045;-85
2022/08/28 00:31:31;;;;;;;10.48;4.80;;;12.40;99.90;;;;;;4988968;28;20030;-85
2022/08/28 00:34:03;;;;;;;10.73;4.82;;;12.40;99.90;;;;;;5016687;28;20042;-85
2022/08/28 00:36:29;;;;;;;12.88;4.47;;;12.40;99.90;;;;;;5011766;28;20038;-85
2022/08/28 00:38:55;;;;;;;10.38;4.35;;;12.30;99.90;;;;;;4981777;28;20053;-84
2022/08/28 00:41:22;;;;;;;9.50;4.20;;;12.40;99.90;;;;;;4997782;28;20038;-84
2022/08/28 00:43:48;;;;;;;10.63;4.85;;;12.30;99.90;;;;;;5015860;28;20128;-84
2022/08/28 00:46:18;;;;;;;12.15;4.10;;;12.30;99.90;;;;;;4987908;28;20038;-85
2022/08/28 00:48:44;;;;;;;11.13;3.85;;;12.20;99.90;;;;;;5016618;28;20414;-85
2022/08/28 00:53:58;;;;;;;7.88;4.20;;;12.20;99.90;;;;;;4998270;28;20049;-84
2022/08/28 00:56:25;;;;;;;10.13;4.50;;;12.10;99.90;;;;;;5019710;28;20079;-85
2022/08/28 00:58:55;;;;;;;8.85;4.18;;;12.10;99.90;;;;;;4986259;28;20065;-85
2022/08/28 01:01:20;;;;;;;10.93;4.32;;;12.20;99.90;;;;;;4990111;28;20080;-85
2022/08/28 01:03:46;;;;;;;10.75;4.22;;;12.20;99.90;;;;;;5030411;28;20684;-84
2022/08/28 01:06:15;;;;;;;8.95;4.55;;;12.20;99.90;;;;;;5008897;28;20050;-85
2022/08/28 01:08:45;;;;;;;10.27;4.47;;;12.20;99.90;;;;;;5015139;28;20297;-85
2022/08/28 01:11:12;;;;;;;14.20;5.18;;;12.20;99.90;;;;;;5015073;28;20030;-85
2022/08/28 01:13:40;;;;;;;11.68;4.90;;;12.10;99.90;;;;;;5017723;28;20111;-85
2022/08/28 01:16:06;;;;;;;7.72;4.00;;;12.10;99.90;;;;;;5018982;28;20459;-85
2022/08/28 01:18:33;;;;;;;10.73;4.60;;;12.00;99.90;;;;;;4982750;28;20466;-85
2022/08/28 01:21:22;;;;;;;5.75;3.88;;;12.00;99.90;;;;;;5004998;28;20080;-85
2022/08/28 01:24:06;;;;;;;6.65;3.60;;;11.80;99.90;;;;;;5019950;28;20047;-85
2022/08/28 01:26:31;;;;;;;14.05;4.40;;;11.70;99.90;;;;;;4989726;28;20073;-85
2022/08/28 01:28:59;;;;;;;8.93;4.13;;;11.70;99.90;;;;;;5019363;28;20138;-84
2022/08/28 01:31:27;;;;;;;9.90;4.75;;;11.80;99.90;;;;;;4988199;28;20034;-85
2022/08/28 01:33:53;;;;;;;10.20;4.63;;;11.80;99.90;;;;;;5031559;28;20220;-85
2022/08/28 01:36:18;;;;;;;9.60;4.07;;;11.80;99.90;;;;;;4992730;28;20033;-85
2022/08/28 01:38:49;;;;;;;11.32;4.75;;;11.80;99.90;;;;;;4985243;28;20464;-85
2022/08/28 01:41:15;;;;;;;10.30;4.18;;;11.80;99.90;;;;;;4987312;28;20033;-85
2022/08/28 01:43:42;;;;;;;11.98;5.10;;;11.80;99.90;;;;;;4983035;28;20117;-85
2022/08/28 01:46:10;;;;;;;11.45;4.40;;;11.90;99.90;;;;;;4990018;28;20552;-85
2022/08/28 01:48:40;;;;;;;10.77;4.35;;;11.80;99.90;;;;;;4993903;28;20425;-85
2022/08/28 01:51:06;;;;;;;10.27;4.50;;;11.80;99.90;;;;;;4991203;28;20049;-84
2022/08/28 01:53:32;;;;;;;12.43;4.63;;;11.80;99.90;;;;;;4986417;28;20030;-84
2022/08/28 01:56:01;;;;;;;16.10;4.82;;;11.80;99.90;;;;;;4984670;28;20115;-85
2022/08/28 01:58:27;;;;;;;12.98;4.38;;;11.80;99.90;;;;;;5018764;28;20049;-85
2022/08/28 02:00:53;;;;;;;11.95;4.78;;;11.80;99.90;;;;;;4987756;28;20034;-85
2022/08/28 02:03:20;;;;;;;9.32;4.65;;;11.70;99.90;;;;;;4988845;28;20030;-84
2022/08/28 02:05:46;;;;;;;11.65;5.57;;;11.70;99.90;;;;;;5018274;28;20069;-84
2022/08/28 02:08:12;;;;;;;11.63;5.00;;;11.80;99.90;;;;;;5023153;28;20096;-84
2022/08/28 02:10:40;;;;;;;15.13;5.45;;;11.80;99.90;;;;;;5018673;28;20351;-84
2022/08/28 02:13:07;;;;;;;11.85;5.50;;;11.70;99.90;;;;;;4993148;28;20477;-84
2022/08/28 02:15:35;;;;;;;12.25;5.47;;;11.70;99.90;;;;;;4992707;28;20120;-83
2022/08/28 02:18:01;;;;;;;14.38;5.00;;;11.80;99.90;;;;;;5014696;28;20512;-84
2022/08/28 02:20:28;;;;;;;8.80;4.57;;;11.80;99.90;;;;;;5016839;28;20109;-84
2022/08/28 02:22:56;;;;;;;8.48;4.88;;;11.80;99.90;;;;;;4979080;28;20600;-85
2022/08/28 02:25:22;;;;;;;15.18;5.25;;;11.90;99.90;;;;;;5010001;28;20029;-85
2022/08/28 02:27:48;;;;;;;11.90;5.15;;;11.90;99.90;;;;;;4986521;28;20042;-84
2022/08/28 02:30:16;;;;;;;14.07;5.68;;;11.90;99.90;;;;;;5019400;28;20427;-84
2022/08/28 02:32:42;;;;;;;8.57;4.88;;;11.90;99.90;;;;;;4978526;28;20453;-85
2022/08/28 02:35:11;;;;;;;13.95;4.72;;;11.90;99.90;;;;;;5018270;28;20034;-84
2022/08/28 02:37:38;;;;;;;11.23;4.60;;;11.70;99.90;;;;;;5001542;28;20157;-84
2022/08/28 02:40:04;;;;;;;13.18;5.35;;;11.70;99.90;;;;;;5016199;28;20030;-86
2022/08/28 02:42:30;;;;;;;9.40;4.25;;;11.70;99.90;;;;;;4986080;28;20117;-86
2022/08/28 02:44:58;;;;;;;10.35;4.40;;;11.60;99.90;;;;;;4990519;28;20067;-86
2022/08/28 02:47:24;;;;;;;13.75;4.78;;;11.50;99.90;;;;;;4978479;28;20096;-86
2022/08/28 02:49:50;;;;;;;11.18;4.60;;;11.50;99.90;;;;;;4987969;28;20459;-87
2022/08/28 02:52:17;;;;;;;9.45;4.70;;;11.30;99.90;;;;;;4982333;28;20038;-87
2022/08/28 02:54:45;;;;;;;14.32;5.05;;;11.30;99.90;;;;;;5017082;28;20037;-87
2022/08/28 02:57:11;;;;;;;12.13;4.90;;;11.40;99.90;;;;;;4985506;28;20041;-87
2022/08/28 02:59:37;;;;;;;11.15;4.65;;;11.60;99.90;;;;;;4972784;28;20046;-87
2022/08/28 03:02:05;;;;;;;10.60;4.53;;;11.60;99.90;;;;;;4984652;28;20092;-87
2022/08/28 03:04:35;;;;;;;14.05;5.10;;;11.60;99.90;;;;;;5010670;28;20323;-86
2022/08/28 03:07:02;;;;;;;7.07;4.45;;;11.50;99.90;;;;;;5009477;28;20437;-86
2022/08/28 03:09:28;;;;;;;10.45;4.90;;;11.50;99.90;;;;;;5017214;28;20050;-86
2022/08/28 03:11:53;;;;;;;16.38;5.32;;;11.50;99.90;;;;;;5020570;28;20040;-86
2022/08/28 03:14:20;;;;;;;12.60;5.45;;;11.40;99.90;;;;;;4989263;28;20073;-87
2022/08/28 03:16:50;;;;;;;8.77;4.80;;;11.50;99.90;;;;;;5032575;28;20038;-86
2022/08/28 03:19:15;;;;;;;11.20;4.88;;;11.50;99.90;;;;;;5008265;28;20627;-86
2022/08/28 03:21:41;;;;;;;12.25;4.80;;;11.60;99.90;;;;;;5012872;28;20355;-87
2022/08/28 03:24:07;;;;;;;12.38;4.82;;;11.50;99.90;;;;;;4991264;28;20116;-86
2022/08/28 03:26:33;;;;;;;12.50;5.40;;;11.40;99.90;;;;;;5011304;28;20318;-86
2022/08/28 03:28:59;;;;;;;8.45;4.43;;;11.40;99.90;;;;;;4990162;28;20096;-86
2022/08/28 03:31:27;;;;;;;6.72;4.03;;;11.20;99.90;;;;;;4989964;28;20038;-86
2022/08/28 03:33:53;;;;;;;7.70;4.15;;;11.30;99.90;;;;;;5008181;28;20038;-86
2022/08/28 03:36:25;;;;;;;13.25;4.30;;;11.20;99.90;;;;;;4992626;28;20469;-87
2022/08/28 03:38:53;;;;;;;12.15;4.55;;;11.40;99.90;;;;;;4985588;28;20050;-86
2022/08/28 03:41:22;;;;;;;13.57;4.63;;;11.30;99.90;;;;;;4994637;28;20042;-87
2022/08/28 03:43:47;;;;;;;13.38;4.50;;;11.10;99.90;;;;;;4985078;28;20532;-86
2022/08/28 03:46:17;;;;;;;12.25;4.55;;;11.10;99.90;;;;;;5030126;28;20038;-86
2022/08/28 03:48:43;;;;;;;13.25;4.88;;;11.30;99.90;;;;;;5007667;28;20041;-86
2022/08/28 03:51:13;;;;;;;9.73;4.85;;;11.40;99.90;;;;;;4985613;28;20498;-87
2022/08/28 03:53:39;;;;;;;8.55;4.72;;;11.30;99.90;;;;;;4984054;28;20485;-86
2022/08/28 03:56:06;;;;;;;11.20;4.30;;;11.30;99.90;;;;;;5003662;28;20040;-87
2022/08/28 03:58:32;;;;;;;12.18;4.60;;;11.30;99.90;;;;;;4986513;28;20123;-87
2022/08/28 04:00:58;;;;;;;10.07;4.38;;;11.30;99.90;;;;;;5034203;28;20038;-86
2022/08/28 04:03:23;;;;;;;10.57;4.80;;;11.30;99.90;;;;;;4991953;28;20437;-87
2022/08/28 04:05:50;;;;;;;12.70;5.53;;;11.30;99.90;;;;;;5017924;28;20465;-87
2022/08/28 04:08:18;;;;;;;13.73;4.97;;;11.30;99.90;;;;;;5018952;28;20183;-87
2022/08/28 04:10:44;;;;;;;11.68;5.03;;;11.40;99.90;;;;;;4994339;28;20045;-87
2022/08/28 04:13:12;;;;;;;12.25;4.93;;;11.50;99.90;;;;;;4996257;28;20042;-87
2022/08/28 04:15:38;;;;;;;10.10;5.03;;;11.50;99.90;;;;;;5010509;28;20691;-88
2022/08/28 04:18:04;;;;;;;15.85;4.82;;;11.60;99.90;;;;;;5000358;28;20060;-86
2022/08/28 04:20:29;;;;;;;12.45;5.03;;;11.60;99.90;;;;;;4993279;28;20396;-87
2022/08/28 04:22:58;;;;;;;10.38;4.70;;;11.60;99.90;;;;;;5022714;28;20394;-87
2022/08/28 04:25:24;;;;;;;12.65;5.47;;;11.50;99.90;;;;;;5000285;28;20048;-87
2022/08/28 04:27:50;;;;;;;12.65;4.63;;;11.50;99.90;;;;;;5017613;28;20083;-87
2022/08/28 04:30:16;;;;;;;13.73;4.75;;;11.40;99.90;;;;;;5024857;28;20034;-87
2022/08/28 04:32:42;;;;;;;8.55;4.40;;;11.50;99.90;;;;;;4985149;28;20087;-86
2022/08/28 04:35:09;;;;;;;9.85;4.35;;;11.40;99.90;;;;;;5029315;28;20130;-87
2022/08/28 04:37:39;;;;;;;11.60;4.50;;;11.40;99.90;;;;;;5017434;28;20098;-86
2022/08/28 04:40:08;;;;;;;10.15;4.43;;;11.40;99.90;;;;;;4988234;28;20076;-86
2022/08/28 04:42:34;;;;;;;11.13;4.57;;;11.40;99.90;;;;;;4998348;28;20590;-86
2022/08/28 04:45:00;;;;;;;11.27;4.70;;;11.50;99.90;;;;;;5001705;28;20046;-87
2022/08/28 04:47:27;;;;;;;13.05;4.90;;;11.50;99.90;;;;;;4986374;28;20037;-87
2022/08/28 04:49:54;;;;;;;8.73;4.00;;;11.50;99.90;;;;;;5017541;28;20037;-87
2022/08/28 04:52:21;;;;;;;10.40;4.95;;;11.60;99.90;;;;;;5014723;28;20057;-86
2022/08/28 04:54:47;;;;;;;8.82;4.30;;;11.60;99.90;;;;;;5008825;28;20077;-88
2022/08/28 04:57:13;;;;;;;6.53;4.28;;;11.60;99.90;;;;;;5005567;28;20053;-88
2022/08/28 04:59:40;;;;;;;8.07;4.85;;;11.60;99.90;;;;;;5004473;28;20033;-87
2022/08/28 05:02:06;;;;;;;10.45;4.93;;;11.70;99.90;;;;;;4983333;28;20524;-87
2022/08/28 05:04:35;;;;;;;10.93;4.72;;;11.70;99.90;;;;;;5027590;28;20084;-87
2022/08/28 05:07:01;;;;;;;8.20;4.13;;;11.80;99.90;;;;;;4980034;28;20133;-86
2022/08/28 05:09:27;;;;;;;8.00;3.80;;;11.90;99.90;;;;;;5011919;28;20053;-87
2022/08/28 05:11:52;;;;;;;8.43;4.20;;;11.90;99.90;;;;;;4983819;28;20050;-86
2022/08/28 05:14:20;;;;;;;7.70;3.85;;;11.90;99.90;;;;;;5015889;28;20051;-87
2022/08/28 05:16:48;;;;;;;8.65;3.67;;;12.00;99.90;;;;;;4978188;28;20061;-86
2022/08/28 05:19:16;;;;;;;10.10;4.00;;;12.00;99.90;;;;;;5014458;28;20061;-86
2022/08/28 05:21:42;;;;;;;6.18;3.58;;;12.00;99.90;;;;;;4978969;28;20418;-86
2022/08/28 05:24:08;;;;;;;9.68;4.18;;;11.90;99.90;;;;;;5014830;28;20041;-87
2022/08/28 05:26:35;;;;;;;11.88;3.75;;;12.00;99.90;;;;;;5018692;28;20037;-86
2022/08/28 05:29:02;;;;;;;10.30;3.33;;;12.10;99.90;;;;;;4999341;28;20040;-87
2022/08/28 05:31:32;;;;;;;7.25;3.40;;;12.20;99.90;;;;;;5002753;28;20045;-88
2022/08/28 05:34:00;;;;;;;8.65;3.78;;;12.30;99.90;;;;;;4994701;28;20401;-87
2022/08/28 05:36:27;;;;;;;8.05;3.50;;;12.30;99.90;;;;;;4995540;28;20121;-86
2022/08/28 05:38:57;;;;;;;9.48;3.78;;;12.50;99.90;;;;;;5018341;28;20112;-86
2022/08/28 05:41:31;;;;;;;10.13;3.38;;;12.50;99.90;;;;;;4992977;28;20626;-86
2022/08/28 05:44:03;;;;;;;7.77;3.20;;;12.60;99.90;;;;;;4988646;28;20442;-86
2022/08/28 05:46:29;;;;;;;7.45;3.22;;;12.70;99.90;;;;;;5014725;28;20041;-84
2022/08/28 05:48:56;;;;;;;6.35;3.08;;;12.80;99.90;;;;;;5017158;28;20087;-84
2022/08/28 05:51:25;;;;;;;10.02;3.30;;;12.90;99.90;;;;;;5030557;28;20076;-84
2022/08/28 05:53:52;;;;;;;9.25;3.45;;;13.00;99.90;;;;;;5019376;28;20136;-84
2022/08/28 05:56:23;;;;;;;6.25;2.80;;;13.10;99.90;;;;;;5024777;28;20121;-84
2022/08/28 05:58:49;;;;;;;9.82;3.10;;;13.30;99.90;;;;;;5003113;28;20041;-84
2022/08/28 06:01:18;;;;;;;10.75;3.20;;;13.40;99.90;;;;;;4987968;28;20045;-84
2022/08/28 06:04:00;;;;;;;8.20;2.72;;;13.60;1.00;;;;;;4983661;28;20033;-84
2022/08/28 06:06:28;;;;;;;7.43;3.08;;;13.80;1.00;;;;;;5014189;28;20052;-84
2022/08/28 06:09:00;;;;;;;8.27;2.85;;;14.00;99.90;;;;;;4992460;28;20042;-84
2022/08/28 06:11:28;;;;;;;5.55;2.55;;;14.10;99.90;;;;;;4986665;28;20050;-84
2022/08/28 06:13:54;;;;;;;9.10;2.50;;;14.20;99.90;;;;;;4982957;28;20121;-84
2022/08/28 06:16:20;;;;;;;4.95;2.70;;;14.40;1.00;;;;;;5011014;28;20050;-84
2022/08/28 06:18:46;;;;;;;7.97;2.50;;;14.50;1.00;;;;;;4983522;28;20504;-84
2022/08/28 06:21:11;;;;;;;7.80;2.58;;;14.50;99.90;;;;;;5014105;28;20147;-84
2022/08/28 06:23:38;;;;;;;6.82;2.30;;;14.70;1.00;;;;;;4998192;28;20041;-85
2022/08/28 06:26:04;;;;;;;8.02;3.15;;;14.90;99.90;;;;;;4999331;28;20493;-84
2022/08/28 06:28:31;;;;;;;6.38;2.13;;;15.00;1.00;;;;;;5031323;28;20181;-85
2022/08/28 06:31:00;;;;;;;10.52;2.65;;;15.10;99.90;;;;;;4985221;28;20072;-85
2022/08/28 06:33:25;;;;;;;6.85;2.40;;;15.10;99.90;;;;;;5006651;28;20045;-85
2022/08/28 06:35:53;;;;;;;8.05;2.45;;;15.10;1.00;;;;;;5015886;28;20386;-84
2022/08/28 06:38:21;;;;;;;14.68;2.70;;;15.20;16.10;;;;;;5001430;28;20037;-85
2022/08/28 06:40:49;;;;;;;7.75;2.17;;;15.40;99.90;;;;;;4986533;28;20108;-84
2022/08/28 06:43:16;;;;;;;7.13;2.45;;;15.50;99.90;;;;;;5017305;28;20041;-84
2022/08/28 06:45:44;;;;;;;7.50;2.15;;;15.60;99.90;;;;;;4986538;28;20039;-85
2022/08/28 06:48:15;;;;;;;8.13;2.30;;;15.80;1.00;;;;;;5015307;28;20116;-84
2022/08/28 06:50:46;;;;;;;15.95;2.60;;;15.90;99.90;;;;;;5018628;28;20026;-85
2022/08/28 06:53:15;;;;;;;5.97;1.95;;;16.10;99.90;;;;;;4997364;28;20077;-85
2022/08/28 06:55:42;;;;;;;9.45;2.58;;;16.30;1.00;;;;;;4983559;28;20121;-85
2022/08/28 06:58:09;;;;;;;8.20;2.20;;;16.40;1.00;;;;;;4989804;28;20482;-85
2022/08/28 07:00:36;;;;;;;5.20;2.25;;;16.60;1.00;;;;;;4984985;28;20038;-84
2022/08/28 07:03:04;;;;;;;6.85;2.13;;;16.80;1.00;;;;;;4984379;28;20115;-85
2022/08/28 07:05:32;;;;;;;8.68;2.20;;;16.90;99.90;;;;;;5019505;28;20445;-85
2022/08/28 07:07:58;;;;;;;6.50;2.03;;;17.00;1.00;;;;;;5006921;28;20054;-85
2022/08/28 07:10:28;;;;;;;9.80;2.10;;;17.10;99.90;;;;;;5003491;28;20045;-85
2022/08/28 07:12:53;;;;;;;5.03;1.83;;;17.20;80.10;;;;;;5019377;28;20080;-85
2022/08/28 07:15:20;;;;;;;5.38;1.80;;;17.30;96.10;;;;;;5003322;28;20088;-85
2022/08/28 07:17:45;;;;;;;4.78;1.85;;;17.50;17.50;;;;;;4987897;28;20141;-85
2022/08/28 07:20:11;;;;;;;8.48;2.40;;;17.50;1.00;;;;;;5005805;28;20797;-85
2022/08/28 07:22:39;;;;;;;7.03;2.30;;;17.40;1.00;;;;;;4990314;28;20045;-85
2022/08/28 07:25:06;;;;;;;7.60;2.00;;;17.20;80.90;;;;;;4985014;28;20133;-86
2022/08/28 07:27:32;;;;;;;11.15;2.03;;;17.10;1.00;;;;;;4991179;28;20111;-85
2022/08/28 07:29:58;;;;;;;6.30;1.90;;;17.00;99.90;;;;;;5016764;28;20033;-85
2022/08/28 07:32:23;;;;;;;5.28;2.10;;;16.90;64.60;;;;;;4991098;28;20061;-85
2022/08/28 07:34:49;;;;;;;5.00;1.90;;;16.90;82.20;;;;;;5017535;28;20064;-85
2022/08/28 07:37:16;;;;;;;6.28;2.35;;;16.80;99.90;;;;;;4991287;28;20183;-85
2022/08/28 07:39:43;;;;;;;7.97;2.15;;;16.70;99.90;;;;;;5031125;28;20661;-85
2022/08/28 07:44:47;;;;;;;6.15;1.75;;;16.60;99.90;;;;;;5021747;28;20047;-85
2022/08/28 07:44:58;;;;;;;4.80;2.13;;;16.70;52.20;;;;;;5006019;28;20504;-85
2022/08/28 07:47:32;;;;;;;4.30;1.60;;;16.70;8.40;;;;;;5001031;28;20407;-85
2022/08/28 07:49:59;;;;;;;10.23;2.08;;;16.70;99.90;;;;;;5016872;28;20091;-85
2022/08/28 07:52:27;;;;;;;6.55;2.05;;;16.70;99.90;;;;;;4989376;28;20038;-85
2022/08/28 07:54:53;;;;;;;3.70;1.80;;;17.10;1.00;;;;;;5023272;28;20125;-86
2022/08/28 07:57:22;;;;;;;6.88;2.15;;;17.50;99.90;;;;;;5024567;28;20092;-85
2022/08/28 07:59:51;;;;;;;6.70;1.90;;;17.80;99.90;;;;;;5022884;28;20496;-86
2022/08/28 08:02:17;;;;;;;5.20;2.00;;;18.10;47.90;;;;;;4995207;28;20129;-86
2022/08/28 08:04:43;;;;;;;6.55;2.17;;;18.20;1.00;;;;;;5031253;28;20070;-85
2022/08/28 08:07:11;;;;;;;6.72;1.70;;;18.40;1.00;;;;;;5017915;28;20077;-85
2022/08/28 08:09:42;;;;;;;11.98;2.45;;;18.60;99.90;;;;;;5005559;28;20476;-85
2022/08/28 08:12:08;;;;;;;6.95;1.90;;;18.80;99.90;;;;;;5005887;28;20038;-85
2022/08/28 08:14:35;;;;;;;7.20;1.92;;;18.60;99.90;;;;;;4992995;28;20060;-86
2022/08/28 08:17:02;;;;;;;5.95;2.05;;;18.80;99.90;;;;;;5026349;28;20180;-85
2022/08/28 08:19:28;;;;;;;7.10;2.10;;;18.40;99.90;;;;;;5024052;28;20056;-85
2022/08/28 08:21:55;;;;;;;9.52;2.13;;;18.00;99.90;;;;;;5018962;28;20042;-85
2022/08/28 08:24:24;;;;;;;6.57;1.90;;;17.90;1.00;;;;;;4968011;28;20184;-85
2022/08/28 08:26:52;;;;;;;8.02;2.33;;;18.20;1.00;;;;;;4994877;28;20378;-85
2022/08/28 08:29:22;;;;;;;6.43;2.25;;;18.50;99.90;;;;;;5034144;28;20287;-85
2022/08/28 08:32:01;;;;;;;8.27;2.20;;;18.80;1.00;;;;;;5017924;28;20043;-85
2022/08/28 08:34:27;;;;;;;6.72;1.92;;;18.60;1.00;;;;;;5009464;28;20389;-86
2022/08/28 08:36:53;;;;;;;7.05;2.45;;;18.20;1.00;;;;;;5030696;28;20049;-85
2022/08/28 08:39:19;;;;;;;6.65;1.92;;;18.10;99.90;;;;;;5018328;28;20572;-86
2022/08/28 08:41:48;;;;;;;5.35;1.83;;;18.60;99.90;;;;;;5009462;28;20057;-86
2022/08/28 08:44:35;;;;;;;7.30;1.98;;;19.10;99.90;;;;;;4992374;28;20532;-85
2022/08/28 08:47:15;;;;;;;8.50;2.20;;;19.10;99.90;;;;;;4993149;28;20428;-86
2022/08/28 08:49:46;;;;;;;9.90;2.20;;;19.20;99.90;;;;;;5035085;28;20041;-85
2022/08/28 08:52:31;;;;;;;8.20;1.90;;;18.80;99.90;;;;;;4988947;28;20458;-86
2022/08/28 08:55:15;;;;;;;7.15;2.40;;;18.70;99.90;;;;;;5013422;28;20088;-85
2022/08/28 08:57:43;;;;;;;9.43;2.15;;;19.30;99.90;;;;;;4993129;28;20094;-85
2022/08/28 09:00:10;;;;;;;4.55;2.28;;;18.80;99.90;;;;;;5018629;28;20041;-86
2022/08/28 09:02:44;;;;;;;5.85;2.10;;;18.60;99.90;;;;;;5032925;28;20050;-86
2022/08/28 09:05:15;;;;;;;8.40;2.38;;;18.40;1.00;;;;;;4985657;28;20770;-86
2022/08/28 09:07:46;;;;;;;5.32;2.28;;;18.40;1.00;;;;;;4999230;28;20100;-86
2022/08/28 09:10:14;;;;;;;6.30;2.10;;;19.10;99.90;;;;;;4990829;28;20057;-85
2022/08/28 09:12:56;;;;;;;5.15;2.10;;;19.60;99.90;;;;;;4984686;28;20042;-86
2022/08/28 09:15:26;;;;;;;4.50;1.90;;;20.00;99.90;;;;;;4988446;28;20590;-85
2022/08/28 09:17:55;;;;;;;9.27;2.20;;;19.90;99.90;;;;;;4998245;28;20042;-85
2022/08/28 09:20:27;;;;;;;4.10;1.80;;;19.90;92.60;;;;;;4987571;28;20116;-85
2022/08/28 09:22:54;;;;;;;3.60;1.80;;;20.20;99.90;;;;;;5003335;28;20401;-86
2022/08/28 09:25:59;;;;;;;5.75;2.17;;;20.30;51.50;;;;;;4989640;28;20104;-86
2022/08/28 09:28:35;;;;;;;5.33;2.00;;;20.20;35.70;;;;;;4994316;28;20031;-85
2022/08/28 09:31:06;;;;;;;4.72;2.13;;;19.60;1.00;;;;;;5012336;28;20087;-86
2022/08/28 09:33:34;;;;;;;6.28;1.80;;;19.60;1.00;;;;;;5020178;28;20745;-86
2022/08/28 09:36:22;;;;;;;7.78;2.03;;;20.10;1.00;;;;;;5017489;28;20046;-85
2022/08/28 09:39:11;;;;;;;5.70;2.00;;;20.40;1.00;;;;;;5005163;28;20100;-84
2022/08/28 09:44:55;;;;;;;4.22;1.98;;;19.20;1.00;;;;;;5008519;28;20095;-85
2022/08/28 09:47:40;;;;;;;7.38;2.15;;;20.10;1.00;;;;;;5009299;28;20059;-85
2022/08/28 09:50:22;;;;;;;6.20;2.20;;;20.30;1.00;;;;;;4989898;28;20041;-85
2022/08/28 09:52:50;;;;;;;5.30;1.85;;;20.50;1.00;;;;;;5008416;28;20179;-84
2022/08/28 09:55:40;;;;;;;5.28;1.95;;;21.00;1.00;;;;;;4992744;28;20230;-85
2022/08/28 09:58:06;;;;;;;4.22;2.03;;;20.00;99.90;;;;;;4989502;28;20080;-85
2022/08/28 10:00:40;;;;;;;5.93;2.10;;;19.50;99.90;;;;;;4989443;28;20049;-84
2022/08/28 10:03:13;;;;;;;9.95;2.00;;;20.20;99.90;;;;;;5018212;28;20036;-85
2022/08/28 10:06:03;;;;;;;6.63;2.17;;;20.30;99.90;;;;;;5013746;28;20120;-84
2022/08/28 10:08:50;;;;;;;6.05;2.13;;;20.50;99.90;;;;;;4987462;28;20041;-85
2022/08/28 10:11:40;;;;;;;5.90;2.25;;;20.20;99.90;;;;;;4982709;28;20265;-85
2022/08/28 10:14:30;;;;;;;4.43;2.17;;;20.00;1.00;;;;;;5008834;28;20149;-84
2022/08/28 10:17:32;;;;;;;5.43;2.13;;;20.60;99.90;;;;;;5039893;28;20041;-84
2022/08/28 10:20:46;;;;;;;5.45;1.95;;;20.80;99.90;;;;;;4989731;28;20034;-85
2022/08/28 10:23:30;;;;;;;7.23;1.93;;;21.00;99.90;;;;;;4979829;28;20521;-84
2022/08/28 10:26:18;;;;;;;5.63;2.28;;;21.30;1.00;;;;;;5034171;28;20284;-84
2022/08/28 10:29:02;;;;;;;5.78;2.20;;;21.10;99.90;;;;;;5010100;28;20119;-84
2022/08/28 10:32:12;;;;;;;5.95;2.10;;;20.80;99.90;;;;;;4985620;28;20410;-85
2022/08/28 10:35:04;;;;;;;4.32;2.33;;;21.00;99.90;;;;;;4988468;28;20094;-85
2022/08/28 10:38:07;;;;;;;5.32;2.00;;;20.10;99.90;;;;;;4996742;28;20072;-85
2022/08/28 10:40:38;;;;;;;7.40;2.30;;;20.30;99.90;;;;;;4987043;28;20041;-85
2022/08/28 10:43:18;;;;;;;5.40;1.83;;;20.90;99.90;;;;;;4991200;28;20175;-85
2022/08/28 10:45:44;;;;;;;5.88;2.05;;;21.10;99.90;;;;;;4979802;28;20034;-85
2022/08/28 10:48:27;;;;;;;3.47;1.90;;;20.70;99.90;;;;;;5023838;28;20120;-85
2022/08/28 10:51:06;;;;;;;6.70;2.22;;;20.20;99.90;;;;;;5021588;28;20045;-84
2022/08/28 10:53:42;;;;;;;4.57;1.80;;;19.60;99.90;;;;;;5004958;28;20053;-84
2022/08/28 10:56:14;;;;;;;4.90;1.90;;;20.40;99.90;;;;;;4994441;28;20040;-85
2022/08/28 10:58:40;;;;;;;5.25;2.13;;;20.80;99.90;;;;;;4998321;28;20107;-85
2022/08/28 11:01:12;;;;;;;6.57;1.80;;;21.00;99.90;;;;;;4992094;28;20141;-85
2022/08/28 11:03:50;;;;;;;5.10;2.00;;;21.30;99.90;;;;;;5011050;28;20053;-84
2022/08/28 11:06:23;;;;;;;5.85;1.90;;;21.40;99.90;;;;;;4989423;28;20185;-85
2022/08/28 11:08:53;;;;;;;6.90;2.20;;;21.10;99.90;;;;;;4994751;28;20663;-84
2022/08/28 11:11:56;;;;;;;4.68;2.05;;;21.30;99.90;;;;;;5009366;28;20033;-84
2022/08/28 11:14:35;;;;;;;8.88;2.25;;;21.40;99.90;;;;;;4968673;28;20144;-85
2022/08/28 11:17:10;;;;;;;4.63;1.85;;;21.50;99.90;;;;;;4986607;28;20281;-84
2022/08/28 11:20:14;;;;;;;4.63;1.75;;;20.00;99.90;;;;;;4989390;28;20129;-84
2022/08/28 11:22:47;;;;;;;6.78;2.03;;;19.60;99.90;;;;;;5014444;28;20627;-85
2022/08/28 11:25:24;;;;;;;4.63;2.17;;;20.30;99.90;;;;;;4995975;28;20053;-84
2022/08/28 11:28:27;;;;;;;7.25;2.33;;;21.00;99.90;;;;;;5011720;28;20045;-85
2022/08/28 11:31:05;;;;;;;4.25;2.00;;;20.80;99.90;;;;;;4985628;28;20033;-84
2022/08/28 11:33:51;;;;;;;5.65;2.03;;;20.20;99.90;;;;;;4985306;28;20034;-84
2022/08/28 11:36:22;;;;;;;4.93;1.98;;;20.50;99.90;;;;;;4987989;28;20037;-84
2022/08/28 11:38:51;;;;;;;4.38;1.80;;;21.00;99.90;;;;;;5003421;28;20084;-84
2022/08/28 11:41:26;;;;;;;5.15;2.03;;;21.20;99.90;;;;;;5006153;28;20031;-84
2022/08/28 11:44:10;;;;;;;5.68;2.03;;;20.40;99.90;;;;;;4989030;28;20034;-85
2022/08/28 11:46:42;;;;;;;4.05;2.00;;;20.20;99.90;;;;;;5029677;28;20038;-85
2022/08/28 11:49:25;;;;;;;6.93;1.83;;;20.90;99.90;;;;;;5028371;28;20565;-84
2022/08/28 11:52:09;;;;;;;5.53;1.88;;;21.20;99.90;;;;;;5006649;28;20415;-84
2022/08/28 11:55:00;;;;;;;6.95;2.40;;;21.20;99.90;;;;;;5022793;28;20037;-84
2022/08/28 11:57:57;;;;;;;6.35;2.17;;;20.70;99.90;;;;;;5034685;28;20042;-84
2022/08/28 12:00:45;;;;;;;4.82;2.30;;;21.00;99.90;;;;;;5020566;28;20681;-84
2022/08/28 12:03:37;;;;;;;4.85;1.90;;;20.70;99.90;;;;;;5024696;28;20103;-84
2022/08/28 12:06:04;;;;;;;4.28;1.95;;;21.00;99.90;;;;;;5003558;28;20627;-84
2022/08/28 12:08:54;;;;;;;4.25;1.98;;;20.40;99.90;;;;;;5018072;28;20375;-85
2022/08/28 12:11:38;;;;;;;4.90;2.22;;;21.20;99.90;;;;;;5031028;28;20046;-84
2022/08/28 12:14:06;;;;;;;6.40;2.10;;;21.00;99.90;;;;;;5024214;28;20041;-84
2022/08/28 12:16:57;;;;;;;4.95;2.00;;;21.00;99.90;;;;;;4989197;28;20184;-85
2022/08/28 12:19:41;;;;;;;4.35;1.83;;;20.20;99.90;;;;;;5007913;28;20320;-84
2022/08/28 12:22:17;;;;;;;4.68;1.88;;;19.70;99.90;;;;;;5036143;28;20044;-84
2022/08/28 12:24:53;;;;;;;4.80;1.95;;;20.30;99.90;;;;;;5016716;28;20084;-85
2022/08/28 12:27:19;;;;;;;4.10;1.60;;;20.40;99.90;;;;;;5021647;28;20053;-84
2022/08/28 12:29:50;;;;;;;4.57;1.70;;;20.40;99.90;;;;;;5001190;28;20034;-84
2022/08/28 12:32:43;;;;;;;6.93;2.10;;;19.90;99.90;;;;;;5026077;28;20118;-84
2022/08/28 12:35:25;;;;;;;5.53;1.98;;;20.50;99.90;;;;;;5034033;28;20504;-84
2022/08/28 12:37:57;;;;;;;5.15;1.90;;;20.60;99.90;;;;;;5009573;28;20424;-84
2022/08/28 12:40:25;;;;;;;5.97;2.00;;;20.30;99.90;;;;;;5006470;28;20669;-85
2022/08/28 12:42:58;;;;;;;4.60;1.90;;;20.90;99.90;;;;;;5002480;28;20628;-84
2022/08/28 12:45:39;;;;;;;4.25;2.00;;;21.20;99.90;;;;;;5035579;28;20426;-84
2022/08/28 12:48:18;;;;;;;5.68;1.98;;;22.10;99.90;;;;;;4989116;28;20242;-84
2022/08/28 12:50:44;;;;;;;4.97;1.80;;;21.80;99.90;;;;;;5023742;28;20106;-84
2022/08/28 12:53:15;;;;;;;6.28;1.88;;;21.30;99.90;;;;;;5003622;28;20423;-84
2022/08/28 12:55:44;;;;;;;4.13;1.60;;;20.80;99.90;;;;;;5018960;28;20106;-84
2022/08/28 12:58:35;;;;;;;4.95;1.83;;;20.90;99.90;;;;;;4992192;28;20044;-85
2022/08/28 13:01:29;;;;;;;4.20;1.70;;;21.00;99.90;;;;;;5003743;28;20064;-84
2022/08/28 13:04:04;;;;;;;4.30;1.30;;;21.20;99.90;;;;;;4991958;28;20052;-84
2022/08/28 13:06:35;;;;;;;3.15;1.55;;;21.10;99.90;;;;;;5012904;28;20434;-84
2022/08/28 13:09:17;;;;;;;3.45;1.50;;;20.90;99.90;;;;;;4979577;28;20050;-84
2022/08/28 13:11:49;;;;;;;5.38;1.90;;;20.10;99.90;;;;;;4988882;28;20737;-84
2022/08/28 13:14:34;;;;;;;3.75;1.85;;;20.30;99.90;;;;;;5016962;28;20055;-84
2022/08/28 13:17:00;;;;;;;4.75;1.70;;;20.60;99.90;;;;;;4979011;28;20126;-84